LFBL 181530Z AUTO 30007KT 240V020 9999 FEW047 23/12 Q1016 NOSIG

ElémentsDécodage
LFBL Station météo située sur l'aérodrome de LIMOGES Bellegarde
181530Z émis le 18 du mois à 15h30 UTC
AUTO Bulletin édité par un automate
30007KT vent du 300°, 07 noeuds
240V020 vent de direction variable entre 240° et 020°
9999 visibilité horizontale supérieure à 10 Km
FEW047 nuages rares (1/8 à 2/8) à 4700 pieds
23/12 température 23°C, point de rosée 12°C
 soit une humidité relative de 50%
Q1016 la pression au niveau de la mer (QNH) est de 1016 hPa
NOSIG Pas de changement significatif prévu au cours des deux heures suivant l'heure de l'observation